Time;durP1;ratioP1;P1;durP2;ratioP2;P2;SDS_P1;SDS_P2;PMS_P1;PMS_P2;Temp;Humidity;BMP_temperature;BMP_pressure;BME280_temperature;BME280_humidity;BME280_pressure;Samples;Min_cycle;Max_cycle;Signal;HPM_P1;HPM_P2
2023/12/13 00:00:25;;;;;;;5.20;3.67;;;10.20;93.30;;;;;;5135875;27;20051;-29
2023/12/13 00:02:50;;;;;;;5.85;3.60;;;10.20;93.30;;;;;;5135703;27;20020;-29
2023/12/13 00:05:16;;;;;;;4.60;3.50;;;10.20;93.30;;;;;;5135753;27;20023;-30
2023/12/13 00:07:42;;;;;;;3.95;3.42;;;10.20;93.50;;;;;;5136078;27;20026;-30
2023/12/13 00:10:08;;;;;;;5.68;3.25;;;10.20;93.30;;;;;;5135757;27;20024;-29
2023/12/13 00:12:33;;;;;;;5.03;3.28;;;10.20;93.30;;;;;;5135701;27;20024;-30
2023/12/13 00:14:59;;;;;;;7.13;3.83;;;10.20;93.30;;;;;;5134231;27;20031;-29
2023/12/13 00:17:24;;;;;;;5.97;3.00;;;10.10;93.30;;;;;;5135461;27;20031;-28
2023/12/13 00:19:50;;;;;;;3.80;2.78;;;10.10;93.30;;;;;;5135439;27;20023;-29
2023/12/13 00:22:15;;;;;;;4.25;3.10;;;10.10;93.30;;;;;;5135583;27;20123;-28
2023/12/13 00:24:41;;;;;;;3.53;2.70;;;10.10;93.30;;;;;;5135488;27;20031;-38
2023/12/13 00:27:07;;;;;;;5.07;2.88;;;10.10;93.30;;;;;;5135107;27;20027;-30
2023/12/13 00:29:32;;;;;;;3.67;2.65;;;10.00;93.30;;;;;;5135276;27;20023;-27
2023/12/13 00:31:58;;;;;;;6.18;2.70;;;10.00;93.30;;;;;;5135006;27;20043;-27
2023/12/13 00:34:23;;;;;;;5.70;2.97;;;10.00;93.30;;;;;;5135284;27;20115;-30
2023/12/13 00:36:49;;;;;;;4.20;2.75;;;10.00;93.40;;;;;;5134951;27;20475;-27
2023/12/13 00:39:18;;;;;;;6.18;2.47;;;10.00;93.40;;;;;;5135253;27;20023;-28
2023/12/13 00:41:43;;;;;;;3.65;2.63;;;10.00;93.40;;;;;;5135242;27;20418;-29
2023/12/13 00:44:09;;;;;;;4.93;2.50;;;10.00;93.40;;;;;;5135482;27;20019;-35
2023/12/13 00:46:34;;;;;;;4.90;2.50;;;10.00;93.30;;;;;;5134944;27;20027;-29
2023/12/13 00:49:00;;;;;;;4.18;2.63;;;10.10;93.30;;;;;;5134118;27;20156;-32
2023/12/13 00:51:26;;;;;;;4.25;2.38;;;10.10;93.30;;;;;;5134973;27;20016;-30
2023/12/13 00:53:51;;;;;;;4.43;2.30;;;10.10;93.30;;;;;;5133655;27;20441;-27
2023/12/13 00:56:17;;;;;;;4.45;2.10;;;10.10;93.30;;;;;;5134624;27;20055;-33
2023/12/13 00:58:45;;;;;;;3.47;2.47;;;10.10;93.30;;;;;;5134886;27;20032;-34
2023/12/13 01:01:11;;;;;;;2.72;2.25;;;10.10;93.30;;;;;;5134783;27;20031;-29
2023/12/13 01:03:36;;;;;;;3.60;2.30;;;10.10;93.30;;;;;;5134638;27;20113;-28
2023/12/13 01:06:07;;;;;;;4.07;2.47;;;10.10;93.30;;;;;;5134709;27;20466;-38
2023/12/13 01:08:32;;;;;;;4.78;2.35;;;10.10;93.20;;;;;;5134815;27;20051;-28
2023/12/13 01:10:58;;;;;;;2.80;2.35;;;10.10;93.20;;;;;;5134579;27;20058;-28
2023/12/13 01:13:23;;;;;;;4.20;2.08;;;10.00;93.20;;;;;;5134930;27;20050;-29
2023/12/13 01:15:49;;;;;;;3.72;2.40;;;10.00;93.20;;;;;;5134338;27;20074;-28
2023/12/13 01:18:14;;;;;;;5.55;2.30;;;10.10;93.20;;;;;;5134259;27;20034;-31
2023/12/13 01:20:40;;;;;;;4.03;2.10;;;10.00;93.20;;;;;;5133084;27;20012;-28
2023/12/13 01:23:06;;;;;;;4.18;2.30;;;10.00;93.20;;;;;;5134306;27;20035;-28
2023/12/13 01:25:32;;;;;;;4.72;2.10;;;10.00;93.20;;;;;;5134555;27;20026;-27
2023/12/13 01:27:57;;;;;;;2.95;2.13;;;10.00;93.20;;;;;;5134210;27;20390;-29
2023/12/13 01:30:23;;;;;;;4.35;2.53;;;9.90;93.20;;;;;;5134503;27;20022;-28
2023/12/13 01:32:49;;;;;;;4.55;2.42;;;9.90;93.20;;;;;;5132752;27;20039;-28
2023/12/13 01:35:15;;;;;;;4.60;2.10;;;9.90;93.30;;;;;;5134284;27;20030;-33
2023/12/13 01:37:40;;;;;;;4.90;2.20;;;10.00;93.30;;;;;;5134470;27;20015;-28
2023/12/13 01:40:07;;;;;;;3.47;2.05;;;10.00;93.30;;;;;;5133988;27;20023;-30
2023/12/13 01:42:36;;;;;;;4.55;2.03;;;10.00;93.30;;;;;;5134294;27;20023;-32
2023/12/13 01:45:02;;;;;;;5.38;2.50;;;10.00;93.30;;;;;;5133947;27;20017;-27
2023/12/13 01:47:28;;;;;;;6.38;2.30;;;10.00;93.30;;;;;;5133849;27;20442;-32
2023/12/13 01:49:54;;;;;;;4.53;2.50;;;10.00;93.20;;;;;;5133584;27;20363;-33
2023/12/13 01:52:20;;;;;;;3.53;1.92;;;10.00;93.20;;;;;;5133598;27;20015;-26
2023/12/13 01:54:47;;;;;;;5.45;2.25;;;10.00;93.20;;;;;;5133781;27;20015;-31
2023/12/13 01:57:14;;;;;;;3.85;1.95;;;10.00;93.20;;;;;;5133728;27;20106;-28
2023/12/13 01:59:41;;;;;;;3.67;2.00;;;10.00;93.10;;;;;;5133380;27;20367;-28
2023/12/13 02:02:07;;;;;;;4.82;2.00;;;10.00;93.10;;;;;;5133010;27;20026;-30
2023/12/13 02:04:35;;;;;;;2.92;1.85;;;10.10;93.10;;;;;;5133608;27;20478;-27
2023/12/13 02:07:01;;;;;;;5.00;2.17;;;10.10;93.10;;;;;;5133505;27;20363;-28
2023/12/13 02:09:26;;;;;;;3.47;1.73;;;10.10;93.10;;;;;;5133252;27;20521;-28
2023/12/13 02:11:52;;;;;;;3.80;1.98;;;10.10;93.10;;;;;;5132130;27;20019;-28
2023/12/13 02:14:18;;;;;;;2.97;1.80;;;10.10;93.10;;;;;;5133360;27;20493;-32
2023/12/13 02:16:44;;;;;;;2.53;1.73;;;10.10;93.00;;;;;;5133152;27;20031;-33
2023/12/13 02:19:10;;;;;;;4.72;1.80;;;10.10;93.00;;;;;;5133173;27;20083;-28
2023/12/13 02:21:36;;;;;;;4.15;1.70;;;10.10;93.00;;;;;;5133222;27;20534;-32
2023/12/13 02:24:04;;;;;;;5.53;1.70;;;10.10;93.00;;;;;;5133335;27;20055;-27
2023/12/13 02:26:30;;;;;;;2.97;1.90;;;10.10;93.00;;;;;;5132927;27;20027;-30
2023/12/13 02:28:56;;;;;;;5.63;1.60;;;10.10;93.00;;;;;;5131754;27;20079;-27
2023/12/13 02:31:24;;;;;;;3.97;1.77;;;10.10;93.00;;;;;;5133019;27;20502;-30
2023/12/13 02:33:50;;;;;;;5.15;1.90;;;10.10;93.00;;;;;;5133076;27;20106;-28
2023/12/13 02:36:15;;;;;;;2.70;1.70;;;10.00;92.90;;;;;;5133349;27;20449;-28
2023/12/13 02:38:41;;;;;;;3.13;2.00;;;10.10;93.00;;;;;;5133003;27;20062;-29
2023/12/13 02:41:07;;;;;;;3.05;1.50;;;10.10;93.00;;;;;;5133115;27;20483;-28
2023/12/13 02:43:33;;;;;;;3.58;1.70;;;10.10;93.00;;;;;;5133390;27;20023;-29
2023/12/13 02:45:58;;;;;;;4.18;1.55;;;10.10;92.90;;;;;;5131530;27;20011;-28
2023/12/13 02:48:24;;;;;;;2.08;1.55;;;10.00;92.90;;;;;;5132761;27;20383;-29
2023/12/13 02:50:52;;;;;;;5.65;1.60;;;10.00;92.90;;;;;;5133068;27;20023;-29
2023/12/13 02:53:19;;;;;;;4.57;1.50;;;10.10;93.00;;;;;;5132783;27;20015;-27
2023/12/13 02:55:44;;;;;;;3.85;1.67;;;10.10;92.90;;;;;;5131453;27;20020;-29
2023/12/13 02:58:10;;;;;;;1.85;1.23;;;10.10;92.90;;;;;;5133022;27;20045;-26
2023/12/13 03:00:36;;;;;;;2.45;1.35;;;10.10;92.90;;;;;;5133028;27;20092;-30
2023/12/13 03:03:01;;;;;;;3.28;1.35;;;10.10;92.90;;;;;;5132668;27;20035;-27
2023/12/13 03:05:27;;;;;;;3.47;1.50;;;10.10;92.90;;;;;;5131292;28;20031;-30
2023/12/13 03:07:53;;;;;;;1.80;1.40;;;10.10;92.90;;;;;;5132523;27;20463;-29
2023/12/13 03:10:18;;;;;;;2.88;1.40;;;10.10;92.90;;;;;;5131292;27;20455;-29
2023/12/13 03:12:44;;;;;;;1.65;1.30;;;10.10;92.80;;;;;;5137136;27;20015;-28
2023/12/13 03:15:09;;;;;;;2.08;1.42;;;10.10;92.80;;;;;;5136701;27;20390;-36
2023/12/13 03:17:35;;;;;;;4.13;1.27;;;10.10;92.80;;;;;;5136739;27;20023;-28
2023/12/13 03:20:01;;;;;;;1.70;1.27;;;10.10;92.80;;;;;;5136652;27;20026;-29
2023/12/13 03:22:26;;;;;;;3.97;1.63;;;10.10;92.80;;;;;;5136973;27;20039;-33
2023/12/13 03:24:52;;;;;;;2.35;1.40;;;10.10;92.80;;;;;;5137007;27;20058;-28
2023/12/13 03:27:17;;;;;;;2.97;1.60;;;10.10;92.80;;;;;;5136412;27;20211;-31
2023/12/13 03:29:43;;;;;;;4.97;1.70;;;10.10;92.80;;;;;;5136601;27;20034;-26
2023/12/13 03:32:09;;;;;;;3.67;1.45;;;10.10;92.80;;;;;;5136263;27;20039;-27
2023/12/13 03:34:34;;;;;;;2.88;1.58;;;10.10;92.80;;;;;;5136817;27;20023;-31
2023/12/13 03:37:01;;;;;;;3.75;1.80;;;10.10;92.80;;;;;;5136518;27;20098;-28
2023/12/13 03:39:27;;;;;;;2.72;1.48;;;10.10;92.80;;;;;;5136687;27;20575;-27
2023/12/13 03:41:52;;;;;;;3.70;1.90;;;10.10;92.80;;;;;;5136514;27;20039;-31
2023/12/13 03:44:18;;;;;;;4.50;1.95;;;10.10;92.70;;;;;;5136305;27;20050;-29
2023/12/13 03:46:44;;;;;;;3.45;2.08;;;10.10;92.70;;;;;;5136603;27;20253;-29
2023/12/13 03:49:09;;;;;;;4.22;1.85;;;10.10;92.80;;;;;;5136131;27;20062;-27
2023/12/13 03:51:35;;;;;;;4.85;1.90;;;10.10;92.80;;;;;;5136502;27;20022;-30
2023/12/13 03:54:01;;;;;;;4.88;2.10;;;10.10;92.80;;;;;;5136202;27;20027;-28
2023/12/13 03:56:29;;;;;;;3.92;2.05;;;10.10;92.70;;;;;;5135985;27;20136;-30
2023/12/13 03:58:55;;;;;;;4.25;2.40;;;10.20;92.80;;;;;;5136310;27;20025;-33
2023/12/13 04:01:20;;;;;;;3.50;2.25;;;10.20;92.70;;;;;;5136255;27;20463;-27
2023/12/13 04:03:46;;;;;;;4.72;2.50;;;10.20;92.70;;;;;;5136346;27;20023;-29
2023/12/13 04:06:11;;;;;;;3.80;2.63;;;10.10;92.70;;;;;;5136206;27;20102;-28
2023/12/13 04:08:37;;;;;;;4.28;3.40;;;10.10;92.70;;;;;;5135746;27;20061;-28
2023/12/13 04:11:02;;;;;;;3.03;2.60;;;10.10;92.80;;;;;;5136227;27;20015;-28
2023/12/13 04:13:28;;;;;;;4.78;2.80;;;10.10;92.70;;;;;;5135764;27;20054;-28
2023/12/13 04:15:53;;;;;;;4.03;2.95;;;10.20;92.80;;;;;;5135696;27;20020;-28
2023/12/13 04:18:19;;;;;;;5.35;3.38;;;10.10;92.70;;;;;;5135508;27;20034;-27
2023/12/13 04:20:44;;;;;;;4.55;3.30;;;10.10;92.70;;;;;;5136033;27;20023;-34
2023/12/13 04:23:10;;;;;;;3.92;3.10;;;10.10;92.80;;;;;;5134248;27;20023;-28
2023/12/13 04:25:37;;;;;;;7.10;3.55;;;10.10;92.80;;;;;;5135460;27;20391;-29
2023/12/13 04:28:03;;;;;;;7.82;3.63;;;10.10;92.80;;;;;;5135467;27;20123;-30
2023/12/13 04:30:29;;;;;;;3.97;3.28;;;10.10;92.80;;;;;;5135721;27;20019;-34
2023/12/13 04:32:55;;;;;;;6.53;3.58;;;10.10;92.80;;;;;;5134201;27;20027;-33
2023/12/13 04:35:20;;;;;;;5.57;3.33;;;10.10;92.80;;;;;;5135129;27;20019;-31
2023/12/13 04:37:46;;;;;;;6.10;3.80;;;10.10;92.80;;;;;;5135436;27;20015;-31
2023/12/13 04:40:11;;;;;;;5.07;3.42;;;10.20;92.90;;;;;;5135527;27;20371;-29
2023/12/13 04:42:37;;;;;;;4.78;3.50;;;10.20;92.80;;;;;;5135535;27;20477;-34
2023/12/13 04:45:04;;;;;;;6.22;3.28;;;10.20;92.80;;;;;;5135047;27;20092;-30
2023/12/13 04:47:30;;;;;;;6.03;3.65;;;10.20;92.80;;;;;;5135262;27;20364;-31
2023/12/13 04:49:55;;;;;;;5.53;3.35;;;10.20;92.80;;;;;;5134981;27;20029;-31
2023/12/13 04:52:21;;;;;;;6.03;3.50;;;10.20;92.80;;;;;;5134913;27;20023;-27
2023/12/13 04:54:46;;;;;;;6.30;3.78;;;10.20;92.90;;;;;;5135081;27;20143;-32
2023/12/13 04:57:12;;;;;;;5.20;3.58;;;10.20;92.90;;;;;;5134861;27;20026;-27
2023/12/13 04:59:38;;;;;;;4.97;3.20;;;10.20;92.90;;;;;;5134819;27;20071;-28
2023/12/13 05:02:03;;;;;;;7.97;3.40;;;10.20;92.90;;;;;;5134913;27;20023;-31
2023/12/13 05:04:29;;;;;;;6.50;3.60;;;10.20;92.90;;;;;;5133412;27;20535;-27
2023/12/13 05:06:55;;;;;;;6.30;3.80;;;10.30;92.90;;;;;;5134847;27;20030;-29
2023/12/13 05:09:21;;;;;;;5.97;3.40;;;10.20;92.90;;;;;;5134675;27;20024;-30
2023/12/13 05:11:47;;;;;;;7.93;3.60;;;10.30;92.90;;;;;;5134960;27;20027;-33
2023/12/13 05:14:12;;;;;;;5.80;3.50;;;10.20;92.90;;;;;;5134883;27;20015;-28
2023/12/13 05:16:38;;;;;;;7.88;3.58;;;10.20;92.90;;;;;;5134385;27;20076;-31
2023/12/13 05:19:03;;;;;;;7.50;3.78;;;10.30;92.90;;;;;;5134279;27;20468;-29
2023/12/13 05:21:29;;;;;;;6.18;3.25;;;10.30;92.90;;;;;;5134491;27;20068;-29
2023/12/13 05:23:54;;;;;;;6.85;3.67;;;10.30;92.90;;;;;;5134595;27;20023;-29
2023/12/13 05:26:20;;;;;;;6.18;3.55;;;10.30;92.90;;;;;;5134367;27;20027;-28
2023/12/13 05:28:46;;;;;;;5.53;3.90;;;10.30;92.90;;;;;;5134402;27;20019;-28
2023/12/13 05:31:19;;;;;;;5.53;3.55;;;10.30;92.90;;;;;;5133988;27;20469;-28
2023/12/13 05:33:45;;;;;;;;;;;10.30;92.90;;;;;;5134558;27;20015;-31
2023/12/13 05:36:10;;;;;;;6.35;3.42;;;10.30;92.90;;;;;;5134045;27;20286;-28
2023/12/13 05:38:36;;;;;;;6.53;3.40;;;10.30;92.90;;;;;;5134089;27;20079;-26
2023/12/13 05:41:02;;;;;;;7.10;3.97;;;10.30;92.90;;;;;;5134153;27;20511;-27
2023/12/13 05:43:28;;;;;;;8.85;3.58;;;10.30;92.90;;;;;;5134184;27;20483;-27
2023/12/13 05:45:54;;;;;;;8.93;4.10;;;10.30;92.90;;;;;;5134268;27;20030;-28
2023/12/13 05:48:20;;;;;;;5.68;3.65;;;10.30;92.90;;;;;;5133972;27;20542;-32
2023/12/13 05:50:45;;;;;;;7.50;4.18;;;10.30;92.90;;;;;;5134291;27;20019;-30
2023/12/13 05:53:11;;;;;;;6.57;3.55;;;10.30;92.90;;;;;;5133772;27;20019;-31
2023/12/13 05:55:36;;;;;;;8.23;4.20;;;10.30;92.90;;;;;;5133685;27;20020;-31
2023/12/13 05:58:02;;;;;;;4.90;3.50;;;10.30;92.90;;;;;;5133773;27;20022;-33
2023/12/13 06:00:28;;;;;;;9.10;4.20;;;10.30;92.90;;;;;;5133664;27;20039;-30
2023/12/13 06:02:54;;;;;;;6.57;3.63;;;10.30;92.90;;;;;;5133783;27;20023;-26
2023/12/13 06:05:19;;;;;;;6.13;3.63;;;10.30;92.90;;;;;;5133843;27;20033;-28
2023/12/13 06:07:45;;;;;;;7.65;4.18;;;10.30;92.90;;;;;;5133607;27;20091;-28
2023/12/13 06:10:11;;;;;;;7.38;4.10;;;10.30;92.90;;;;;;5133376;27;20019;-27
2023/12/13 06:12:36;;;;;;;9.75;4.28;;;10.30;92.90;;;;;;5133482;27;20485;-28
2023/12/13 06:15:02;;;;;;;9.07;4.60;;;10.30;92.90;;;;;;5132026;27;20016;-27
2023/12/13 06:17:27;;;;;;;9.73;4.40;;;10.30;92.90;;;;;;5133215;27;20479;-29
2023/12/13 06:19:53;;;;;;;10.02;4.63;;;10.30;92.90;;;;;;5133283;27;20023;-27
2023/12/13 06:22:18;;;;;;;9.18;4.80;;;10.30;92.90;;;;;;5133211;27;20053;-26
2023/12/13 06:24:44;;;;;;;8.23;4.57;;;10.30;93.00;;;;;;5133394;27;20050;-30
2023/12/13 06:27:10;;;;;;;9.75;4.78;;;10.30;93.00;;;;;;5133062;27;20370;-28
2023/12/13 06:29:35;;;;;;;11.90;4.55;;;10.30;93.00;;;;;;5133193;27;20031;-28
2023/12/13 06:32:01;;;;;;;8.90;4.70;;;10.30;92.90;;;;;;5132975;27;20534;-27
2023/12/13 06:34:26;;;;;;;11.65;4.50;;;10.30;93.00;;;;;;5133164;27;20113;-30
2023/12/13 06:36:52;;;;;;;8.02;3.92;;;10.30;93.00;;;;;;5132771;27;20068;-29
2023/12/13 06:39:17;;;;;;;6.68;3.72;;;10.30;93.00;;;;;;5133107;27;20034;-30
2023/12/13 06:41:44;;;;;;;9.50;4.50;;;10.20;93.00;;;;;;5132994;27;20034;-28
2023/12/13 06:44:10;;;;;;;10.02;4.25;;;10.20;93.00;;;;;;5132989;27;20047;-28
2023/12/13 06:46:35;;;;;;;7.75;4.70;;;10.30;93.10;;;;;;5132104;27;20065;-28
2023/12/13 06:49:01;;;;;;;11.40;5.10;;;10.20;93.00;;;;;;5132665;27;20029;-28
2023/12/13 06:51:27;;;;;;;12.07;5.90;;;10.30;93.10;;;;;;5132645;27;20422;-31
2023/12/13 06:53:52;;;;;;;17.17;7.68;;;10.30;93.10;;;;;;5132615;27;20098;-29
2023/12/13 06:56:18;;;;;;;16.00;7.20;;;10.30;93.10;;;;;;5132696;27;20023;-30
2023/12/13 06:58:44;;;;;;;13.55;6.95;;;10.30;93.10;;;;;;5132661;27;20383;-27
2023/12/13 07:01:10;;;;;;;10.30;6.00;;;10.30;93.10;;;;;;5132687;27;20341;-26
2023/12/13 07:03:35;;;;;;;14.65;5.50;;;10.30;93.10;;;;;;5132383;27;20023;-28
2023/12/13 07:06:04;;;;;;;11.80;6.05;;;10.30;93.10;;;;;;5132890;27;20028;-27
2023/12/13 07:08:29;;;;;;;9.20;5.13;;;10.30;93.10;;;;;;5132493;27;20535;-31
2023/12/13 07:10:55;;;;;;;10.80;5.15;;;10.30;93.10;;;;;;5132727;27;20093;-29
2023/12/13 07:13:20;;;;;;;10.93;5.13;;;10.30;93.10;;;;;;5132541;27;20023;-28
2023/12/13 07:15:46;;;;;;;9.07;5.05;;;10.30;93.10;;;;;;5133023;27;20015;-28
2023/12/13 07:18:12;;;;;;;9.48;4.72;;;10.30;93.10;;;;;;5132643;27;20029;-29
2023/12/13 07:20:37;;;;;;;9.05;4.47;;;10.30;93.10;;;;;;5132669;27;20106;-33
2023/12/13 07:23:03;;;;;;;7.90;4.53;;;10.40;93.10;;;;;;5132577;27;20033;-32
2023/12/13 07:25:28;;;;;;;8.95;4.72;;;10.30;93.40;;;;;;5131326;28;20024;-32
2023/12/13 07:27:54;;;;;;;10.05;4.82;;;10.30;93.10;;;;;;5133216;27;20412;-28
2023/12/13 07:30:19;;;;;;;11.20;4.68;;;10.30;93.10;;;;;;5132457;27;20506;-28
2023/12/13 07:32:45;;;;;;;6.68;4.30;;;10.30;93.10;;;;;;5132400;27;20032;-29
2023/12/13 07:35:11;;;;;;;8.20;4.50;;;10.40;93.10;;;;;;5132535;27;20067;-27
2023/12/13 07:37:37;;;;;;;9.05;4.57;;;10.40;93.10;;;;;;5132698;27;20011;-28
2023/12/13 07:40:05;;;;;;;8.90;4.32;;;10.40;93.10;;;;;;5132711;27;20412;-28
2023/12/13 07:42:31;;;;;;;9.80;4.05;;;10.30;93.10;;;;;;5132648;27;20436;-28
2023/12/13 07:44:58;;;;;;;11.20;4.40;;;10.40;93.10;;;;;;5132112;27;20143;-27
2023/12/13 07:47:24;;;;;;;7.25;4.03;;;10.40;93.10;;;;;;5132583;27;20094;-28
2023/12/13 07:49:50;;;;;;;9.05;3.90;;;10.40;93.10;;;;;;5132326;27;20427;-29
2023/12/13 07:52:16;;;;;;;10.25;4.30;;;10.40;93.10;;;;;;5132617;27;20050;-27
2023/12/13 07:54:44;;;;;;;6.25;4.00;;;10.40;93.10;;;;;;5132527;27;20057;-29
2023/12/13 07:57:10;;;;;;;8.35;4.03;;;10.40;93.10;;;;;;5133403;27;20058;-27
2023/12/13 07:59:36;;;;;;;9.20;4.50;;;10.40;93.00;;;;;;5136283;27;20059;-30
2023/12/13 08:02:01;;;;;;;8.73;3.85;;;10.40;93.00;;;;;;5135815;27;20027;-31
2023/12/13 08:04:27;;;;;;;8.68;3.90;;;10.40;93.00;;;;;;5135922;27;20027;-28
2023/12/13 08:06:53;;;;;;;7.45;3.60;;;10.40;93.00;;;;;;5135921;27;20030;-28
2023/12/13 08:09:19;;;;;;;7.85;4.00;;;10.40;93.00;;;;;;5135587;27;20027;-32
2023/12/13 08:11:46;;;;;;;7.63;3.75;;;10.40;93.10;;;;;;5136291;27;20427;-33
2023/12/13 08:14:14;;;;;;;9.32;4.20;;;10.40;93.00;;;;;;5136189;27;20031;-29
2023/12/13 08:16:40;;;;;;;9.32;3.88;;;10.50;93.10;;;;;;5135747;27;20386;-31
2023/12/13 08:19:05;;;;;;;9.60;4.35;;;10.50;93.00;;;;;;5135932;27;20036;-29
2023/12/13 08:21:31;;;;;;;10.35;4.70;;;10.40;93.00;;;;;;5135504;27;20105;-38
2023/12/13 08:23:57;;;;;;;8.70;4.22;;;10.50;93.00;;;;;;5135975;27;20374;-35
2023/12/13 08:26:25;;;;;;;7.60;4.03;;;10.50;93.00;;;;;;5135589;27;20030;-28
2023/12/13 08:28:51;;;;;;;8.25;3.78;;;10.50;93.00;;;;;;5135581;27;20034;-29
2023/12/13 08:31:17;;;;;;;7.35;3.85;;;10.50;93.00;;;;;;5135391;27;20093;-33
2023/12/13 08:33:43;;;;;;;7.50;3.80;;;10.40;93.00;;;;;;5135624;27;20097;-32
2023/12/13 08:36:10;;;;;;;6.80;3.92;;;10.40;93.00;;;;;;5135352;27;20023;-31
2023/12/13 08:38:36;;;;;;;7.30;3.92;;;10.50;93.00;;;;;;5135513;27;20023;-32
2023/12/13 08:41:07;;;;;;;9.95;4.43;;;10.50;93.00;;;;;;5135353;27;20023;-34
2023/12/13 08:43:33;;;;;;;10.93;4.40;;;10.50;93.00;;;;;;5135735;27;20024;-33
2023/12/13 08:45:58;;;;;;;7.38;3.83;;;10.50;93.30;;;;;;5134921;27;20033;-30
2023/12/13 08:48:25;;;;;;;8.80;3.90;;;10.50;93.00;;;;;;5135077;27;20459;-33
2023/12/13 08:50:51;;;;;;;6.57;3.92;;;10.50;93.00;;;;;;5134657;27;20023;-36
2023/12/13 08:53:16;;;;;;;11.38;3.88;;;10.50;93.00;;;;;;5134830;27;20092;-31
2023/12/13 08:55:42;;;;;;;7.53;3.70;;;10.50;93.00;;;;;;5133607;27;20023;-34
2023/12/13 08:58:08;;;;;;;9.70;3.95;;;10.50;93.00;;;;;;5134974;27;20023;-29
2023/12/13 09:00:33;;;;;;;7.28;3.83;;;10.60;93.00;;;;;;5134768;27;20022;-31
2023/12/13 09:02:59;;;;;;;9.57;3.88;;;10.60;93.00;;;;;;5134665;27;20102;-33
2023/12/13 09:05:24;;;;;;;7.93;4.00;;;10.60;93.00;;;;;;5134645;27;20027;-30
2023/12/13 09:07:50;;;;;;;10.20;4.82;;;10.60;93.00;;;;;;5134343;27;20019;-31
2023/12/13 09:10:16;;;;;;;11.82;6.18;;;10.60;93.00;;;;;;5133904;27;20406;-32
2023/12/13 09:12:41;;;;;;;10.07;5.65;;;10.60;93.00;;;;;;5134757;27;20027;-32
2023/12/13 09:15:07;;;;;;;10.98;5.13;;;10.70;93.00;;;;;;5134645;27;20030;-43
2023/12/13 09:17:34;;;;;;;8.60;4.63;;;10.60;93.00;;;;;;5134676;27;20019;-38
2023/12/13 09:20:00;;;;;;;10.68;5.40;;;10.70;93.00;;;;;;5134647;27;20046;-38
2023/12/13 09:22:25;;;;;;;11.18;4.43;;;10.70;93.00;;;;;;5134582;27;20467;-35
2023/12/13 09:24:51;;;;;;;9.77;4.05;;;10.70;93.00;;;;;;5134178;27;20023;-29
2023/12/13 09:27:16;;;;;;;11.30;4.28;;;10.70;93.00;;;;;;5133995;27;20080;-32
2023/12/13 09:29:42;;;;;;;9.07;4.15;;;10.70;93.00;;;;;;5134035;27;20042;-30
2023/12/13 09:32:08;;;;;;;11.23;4.53;;;10.70;92.90;;;;;;5134188;27;20492;-33
2023/12/13 09:34:34;;;;;;;6.68;3.97;;;10.70;92.90;;;;;;5134372;27;20023;-31
2023/12/13 09:36:59;;;;;;;7.20;3.63;;;10.70;92.90;;;;;;5132621;27;20023;-30
2023/12/13 09:39:25;;;;;;;7.95;3.78;;;10.70;92.90;;;;;;5134007;27;20482;-30
2023/12/13 09:42:02;;;;;;;5.93;4.05;;;10.70;92.90;;;;;;5134003;27;20029;-37
2023/12/13 09:44:30;;;;;;;7.93;3.83;;;10.70;92.90;;;;;;5134259;27;20027;-27
2023/12/13 09:47:00;;;;;;;10.18;3.47;;;10.80;92.90;;;;;;5134132;27;20027;-41
2023/12/13 09:49:28;;;;;;;5.97;3.67;;;10.80;92.90;;;;;;5134045;27;20054;-29
2023/12/13 09:51:55;;;;;;;6.05;3.60;;;10.80;92.90;;;;;;5133753;27;20019;-31
2023/12/13 09:54:21;;;;;;;8.43;3.85;;;10.80;92.90;;;;;;5134003;27;20382;-36
2023/12/13 09:56:46;;;;;;;10.18;4.13;;;10.80;92.90;;;;;;5133913;27;20031;-29
2023/12/13 09:59:12;;;;;;;5.65;3.78;;;10.80;92.90;;;;;;5133943;27;20041;-28
2023/12/13 10:01:37;;;;;;;6.70;3.90;;;10.80;92.90;;;;;;5133686;27;20035;-33
2023/12/13 10:04:03;;;;;;;7.43;4.50;;;10.80;92.90;;;;;;5133666;27;20036;-29
2023/12/13 10:06:29;;;;;;;6.93;3.85;;;10.80;92.90;;;;;;5133538;27;20019;-29
2023/12/13 10:09:01;;;;;;;9.68;3.97;;;10.80;93.10;;;;;;5133545;27;20104;-30
2023/12/13 10:11:27;;;;;;;7.32;3.85;;;10.80;92.80;;;;;;5133837;27;20076;-28
2023/12/13 10:13:52;;;;;;;7.10;3.72;;;10.80;92.80;;;;;;5133178;27;20023;-31
2023/12/13 10:16:19;;;;;;;6.55;3.85;;;10.80;92.80;;;;;;5132217;27;20114;-31
2023/12/13 10:18:46;;;;;;;8.57;4.30;;;10.90;92.80;;;;;;5133265;27;20110;-28
2023/12/13 10:21:13;;;;;;;7.25;4.18;;;10.90;92.80;;;;;;5133196;27;20055;-29
2023/12/13 10:23:43;;;;;;;6.18;4.00;;;10.80;92.80;;;;;;5133184;27;20045;-30
2023/12/13 10:26:09;;;;;;;9.93;4.13;;;10.90;92.90;;;;;;5133184;27;20391;-30
2023/12/13 10:28:35;;;;;;;6.10;3.70;;;10.90;92.80;;;;;;5133234;27;20031;-29
2023/12/13 10:31:02;;;;;;;6.60;4.20;;;10.90;92.90;;;;;;5133045;27;20042;-29
2023/12/13 10:33:28;;;;;;;6.35;3.75;;;10.90;92.80;;;;;;5132878;27;20054;-30
2023/12/13 10:35:56;;;;;;;7.28;4.32;;;10.80;92.80;;;;;;5132652;27;20533;-28
2023/12/13 10:38:25;;;;;;;9.52;4.10;;;10.80;92.80;;;;;;5131603;27;20027;-31
2023/12/13 10:40:51;;;;;;;7.95;4.00;;;10.90;92.80;;;;;;5131392;27;20192;-29
2023/12/13 10:43:19;;;;;;;8.35;4.20;;;10.80;92.80;;;;;;5132822;27;20035;-29
2023/12/13 10:45:53;;;;;;;8.30;4.45;;;10.80;92.80;;;;;;5132916;27;20442;-32
2023/12/13 10:48:22;;;;;;;7.65;4.18;;;10.80;92.80;;;;;;5132573;27;20023;-29
2023/12/13 10:50:50;;;;;;;10.23;4.47;;;10.80;92.80;;;;;;5133224;27;20023;-30
2023/12/13 10:53:18;;;;;;;8.07;3.92;;;10.80;92.80;;;;;;5133011;27;20023;-27
2023/12/13 10:55:44;;;;;;;6.35;4.28;;;10.80;92.80;;;;;;5133039;27;20356;-29
2023/12/13 10:58:10;;;;;;;5.78;4.03;;;10.80;92.80;;;;;;5132745;27;20037;-28
2023/12/13 11:00:37;;;;;;;8.23;4.50;;;10.80;92.80;;;;;;5132547;27;20031;-28
2023/12/13 11:03:11;;;;;;;7.68;4.43;;;10.80;92.80;;;;;;5132651;27;20026;-29
2023/12/13 11:05:37;;;;;;;8.38;3.97;;;10.80;92.80;;;;;;5132442;27;20069;-30
2023/12/13 11:08:22;;;;;;;7.70;4.25;;;10.90;92.80;;;;;;5132842;27;20512;-31
2023/12/13 11:11:00;;;;;;;4.78;3.58;;;10.90;92.80;;;;;;5132787;27;20034;-27
2023/12/13 11:13:25;;;;;;;4.25;3.10;;;10.80;92.70;;;;;;5132661;27;20058;-29
2023/12/13 11:15:51;;;;;;;5.80;3.38;;;10.90;92.70;;;;;;5132384;27;20055;-30
2023/12/13 11:18:17;;;;;;;7.32;4.30;;;10.90;92.70;;;;;;5132499;27;20024;-27
2023/12/13 11:20:53;;;;;;;4.93;3.88;;;10.90;92.70;;;;;;5131044;28;20060;-29
2023/12/13 11:23:25;;;;;;;5.72;3.58;;;10.90;92.70;;;;;;5132576;27;20118;-31
2023/12/13 11:25:51;;;;;;;5.28;3.28;;;10.90;92.70;;;;;;5132531;27;20019;-29
2023/12/13 11:28:21;;;;;;;3.70;2.75;;;10.90;92.70;;;;;;5132304;27;20083;-29
2023/12/13 11:30:47;;;;;;;4.03;2.75;;;10.90;92.70;;;;;;5132444;27;20505;-28
2023/12/13 11:33:14;;;;;;;4.82;2.58;;;10.90;92.60;;;;;;5135412;27;20032;-28
2023/12/13 11:35:39;;;;;;;7.00;2.67;;;10.90;92.60;;;;;;5136376;27;20034;-32
2023/12/13 11:38:05;;;;;;;3.42;2.00;;;10.90;92.60;;;;;;5136545;27;20023;-28
2023/12/13 11:40:31;;;;;;;3.47;2.00;;;10.90;92.60;;;;;;5136244;27;20503;-29
2023/12/13 11:42:56;;;;;;;3.45;1.77;;;10.90;92.50;;;;;;5136161;27;20016;-29
2023/12/13 11:45:22;;;;;;;3.00;1.77;;;10.80;92.50;;;;;;5136062;27;20029;-28
2023/12/13 11:47:49;;;;;;;2.60;1.80;;;10.90;92.60;;;;;;5136360;27;20157;-27
2023/12/13 11:50:16;;;;;;;3.08;1.70;;;10.80;92.50;;;;;;5135881;27;20038;-29
2023/12/13 11:52:44;;;;;;;2.60;1.90;;;10.80;92.60;;;;;;5135930;27;20023;-29
2023/12/13 11:55:09;;;;;;;2.65;1.75;;;10.70;92.60;;;;;;5135786;27;20102;-30
2023/12/13 11:57:35;;;;;;;3.22;2.30;;;10.80;92.60;;;;;;5135991;27;20054;-30
2023/12/13 12:00:01;;;;;;;3.42;1.92;;;10.70;92.60;;;;;;5135997;27;20058;-30
2023/12/13 12:02:27;;;;;;;4.32;2.03;;;10.70;92.70;;;;;;5134195;27;20035;-28
2023/12/13 12:04:52;;;;;;;3.33;2.05;;;10.70;92.70;;;;;;5135770;27;20053;-34
2023/12/13 12:07:19;;;;;;;2.25;1.80;;;10.60;92.60;;;;;;5136155;27;20027;-31
2023/12/13 12:09:52;;;;;;;5.70;2.15;;;10.60;92.60;;;;;;5135851;27;20079;-29
2023/12/13 12:12:18;;;;;;;3.38;1.92;;;10.60;92.70;;;;;;5135798;27;20027;-31
2023/12/13 12:14:47;;;;;;;5.13;1.90;;;10.60;92.70;;;;;;5135682;27;20022;-28
2023/12/13 12:17:15;;;;;;;2.25;1.85;;;10.50;92.70;;;;;;5135790;27;20121;-29
2023/12/13 12:19:40;;;;;;;4.55;2.20;;;10.50;92.70;;;;;;5135471;27;20038;-33
2023/12/13 12:22:06;;;;;;;3.97;2.13;;;10.50;92.70;;;;;;5135700;27;20031;-32
2023/12/13 12:24:36;;;;;;;4.10;2.30;;;10.50;92.80;;;;;;5135529;27;20120;-29
2023/12/13 12:27:11;;;;;;;4.15;2.72;;;10.50;92.80;;;;;;5135302;27;20275;-28
2023/12/13 12:29:37;;;;;;;5.53;2.95;;;10.50;92.80;;;;;;5133973;27;20031;-28
2023/12/13 12:32:08;;;;;;;4.82;3.30;;;10.50;92.80;;;;;;5133976;27;20058;-28
2023/12/13 12:34:35;;;;;;;6.00;3.78;;;10.50;92.80;;;;;;5135343;27;20088;-29
2023/12/13 12:37:02;;;;;;;6.30;3.88;;;10.50;92.80;;;;;;5135041;27;20481;-29
2023/12/13 12:39:29;;;;;;;6.30;4.07;;;10.50;92.80;;;;;;5135180;27;20023;-28